createdAt,value
2019-01-31T00:02:32.018Z,100067.80
2019-01-31T00:05:17.841Z,100061.30
2019-01-31T00:07:59.214Z,100062.67
2019-01-31T00:10:38.059Z,100053.91
2019-01-31T00:13:14.946Z,100069.25
2019-01-31T00:16:14.217Z,100070.09
2019-01-31T00:19:11.405Z,100063.59
2019-01-31T00:22:11.723Z,100065.27
2019-01-31T00:24:56.598Z,100062.18
2019-01-31T00:27:49.014Z,100055.62
2019-01-31T00:30:29.569Z,100052.45
2019-01-31T00:33:26.528Z,100057.09
2019-01-31T00:36:11.414Z,100051.47
2019-01-31T00:38:56.835Z,100053.28
2019-01-31T00:41:39.539Z,100049.03
2019-01-31T00:44:31.647Z,100034.48
2019-01-31T00:47:32.448Z,100045.16
2019-01-31T00:50:35.185Z,100029.19
2019-01-31T00:53:28.494Z,100019.88
2019-01-31T00:56:13.330Z,100013.95
2019-01-31T00:59:21.331Z,100007.58
2019-01-31T01:02:09.512Z,100008.25
2019-01-31T01:04:52.447Z,100012.86
2019-01-31T01:07:38.244Z,100005.28
2019-01-31T01:10:29.409Z,100003.05
2019-01-31T01:13:12.050Z,99997.75
2019-01-31T01:16:12.962Z,99995.98
2019-01-31T01:19:06.252Z,99993.98
2019-01-31T01:21:58.664Z,99990.59
2019-01-31T01:24:44.724Z,99985.73
2019-01-31T01:27:39.809Z,99986.66
2019-01-31T01:30:27.912Z,99980.36
2019-01-31T01:33:22.885Z,99970.69
2019-01-31T01:36:04.495Z,99970.22
2019-01-31T01:39:19.389Z,99969.13
2019-01-31T01:42:11.840Z,99967.83
2019-01-31T01:44:56.735Z,99953.73
2019-01-31T01:47:44.475Z,99950.78
2019-01-31T01:50:32.397Z,99947.36
2019-01-31T01:53:16.983Z,99947.46
2019-01-31T01:55:58.066Z,99940.45
2019-01-31T01:58:36.727Z,99947.95
2019-01-31T02:01:15.752Z,99937.61
2019-01-31T02:04:06.359Z,99941.63
2019-01-31T02:06:52.184Z,99928.38
2019-01-31T02:10:01.016Z,99922.55
2019-01-31T02:12:41.202Z,99920.58
2019-01-31T02:15:44.977Z,99913.09
2019-01-31T02:18:27.877Z,99910.45
2019-01-31T02:21:09.729Z,99908.03
2019-01-31T02:24:04.490Z,99908.67
2019-01-31T02:26:52.519Z,99902.98
2019-01-31T02:29:46.729Z,99898.06
2019-01-31T02:32:30.572Z,99901.37
2019-01-31T02:35:15.549Z,99895.50
2019-01-31T02:38:12.054Z,99892.30
2019-01-31T02:40:56.719Z,99880.34
2019-01-31T02:43:42.047Z,99876.80
2019-01-31T02:46:38.914Z,99864.70
2019-01-31T02:49:38.448Z,99855.59
2019-01-31T02:52:29.485Z,99839.46
2019-01-31T02:55:26.850Z,99839.91
2019-01-31T02:58:11.577Z,99829.56
2019-01-31T03:01:11.756Z,99816.45
2019-01-31T03:03:59.818Z,99827.47
2019-01-31T03:07:03.853Z,99810.98
2019-01-31T03:09:55.006Z,99806.86
2019-01-31T03:12:49.938Z,99802.54
2019-01-31T03:15:28.963Z,99785.50
2019-01-31T03:18:19.810Z,99786.08
2019-01-31T03:21:06.655Z,99771.05
2019-01-31T03:24:00.020Z,99769.62
2019-01-31T03:27:10.252Z,99761.44
2019-01-31T03:30:03.871Z,99758.81
2019-01-31T03:33:08.041Z,99749.87
2019-01-31T03:35:52.873Z,99738.52
2019-01-31T03:38:31.637Z,99731.11
2019-01-31T03:41:22.881Z,99723.18
2019-01-31T03:44:17.412Z,99717.50
2019-01-31T03:46:58.836Z,99710.05
2019-01-31T03:49:49.719Z,99699.53
2019-01-31T03:52:28.826Z,99685.70
2019-01-31T03:55:31.809Z,99682.11
2019-01-31T03:58:45.466Z,99683.88
2019-01-31T04:01:33.293Z,99673.72
2019-01-31T04:04:27.541Z,99666.58
2019-01-31T04:07:00.821Z,99651.10
2019-01-31T04:09:35.267Z,99644.86
2019-01-31T04:12:08.545Z,99630.91
2019-01-31T04:14:41.752Z,99629.69
2019-01-31T04:17:14.857Z,99620.00
2019-01-31T04:19:47.728Z,99610.83
2019-01-31T04:22:21.034Z,99605.37
2019-01-31T04:24:54.277Z,99597.33
2019-01-31T04:27:28.695Z,99593.71
2019-01-31T04:30:02.735Z,99582.97
2019-01-31T04:32:36.083Z,99577.38
2019-01-31T04:35:09.694Z,99566.72
2019-01-31T04:37:43.911Z,99567.02
2019-01-31T04:40:30.236Z,99561.92
2019-01-31T04:42:52.939Z,99555.34
2019-01-31T04:45:25.988Z,99557.19
2019-01-31T04:47:59.729Z,99554.92
2019-01-31T04:50:32.825Z,99550.20
2019-01-31T04:53:06.174Z,99533.44
2019-01-31T04:55:39.217Z,99528.13
2019-01-31T04:58:13.147Z,99524.84
2019-01-31T05:00:46.333Z,99530.00
2019-01-31T05:03:20.170Z,99525.91
2019-01-31T05:05:53.209Z,99522.61
2019-01-31T05:08:26.340Z,99527.27
2019-01-31T05:10:59.762Z,99526.73
2019-01-31T05:13:33.279Z,99525.25
2019-01-31T05:16:06.557Z,99517.74
2019-01-31T05:18:40.901Z,99514.05
2019-01-31T05:21:15.362Z,99511.73
2019-01-31T05:23:48.520Z,99512.30
2019-01-31T05:26:21.445Z,99512.45
2019-01-31T05:28:54.762Z,99500.44
2019-01-31T05:31:27.690Z,99499.88
2019-01-31T05:34:00.595Z,99492.43
2019-01-31T05:36:53.350Z,99494.72
2019-01-31T05:39:26.867Z,99482.87
2019-01-31T05:42:00.045Z,99477.71
2019-01-31T05:44:33.242Z,99487.79
2019-01-31T05:47:06.770Z,99485.49
2019-01-31T05:49:40.242Z,99482.45
2019-01-31T05:52:19.476Z,99476.43
2019-01-31T05:54:55.831Z,99475.89
2019-01-31T05:57:30.704Z,99464.70
2019-01-31T06:00:05.571Z,99466.61
2019-01-31T06:02:58.506Z,99453.73
2019-01-31T06:05:32.164Z,99452.03
2019-01-31T06:08:08.148Z,99451.13
2019-01-31T06:10:42.777Z,99444.94
2019-01-31T06:13:16.270Z,99445.91
2019-01-31T06:15:49.847Z,99448.08
2019-01-31T06:18:23.569Z,99449.66
2019-01-31T06:20:57.443Z,99445.17
2019-01-31T06:23:31.490Z,99446.02
2019-01-31T06:26:05.941Z,99451.36
2019-01-31T06:28:42.342Z,99452.37
2019-01-31T06:31:15.776Z,99445.28
2019-01-31T06:33:49.022Z,99448.23
2019-01-31T06:36:23.754Z,99450.17
2019-01-31T06:38:59.603Z,99446.53
2019-01-31T06:41:33.145Z,99451.10
2019-01-31T06:44:06.451Z,99447.08
2019-01-31T06:46:41.157Z,99440.98
2019-01-31T06:49:14.825Z,99456.48
2019-01-31T06:51:48.379Z,99453.72
2019-01-31T06:54:21.491Z,99443.91
2019-01-31T06:56:54.661Z,99440.08
2019-01-31T06:59:27.991Z,99442.11
2019-01-31T07:02:01.510Z,99443.05
2019-01-31T07:04:34.936Z,99435.95
2019-01-31T07:07:08.528Z,99440.84
2019-01-31T07:09:41.931Z,99437.17
2019-01-31T07:12:15.480Z,99443.56
2019-01-31T07:14:48.685Z,99432.55
2019-01-31T07:17:22.451Z,99423.45
2019-01-31T07:19:56.616Z,99431.86
2019-01-31T07:22:30.376Z,99436.66
2019-01-31T07:25:03.886Z,99431.64
2019-01-31T07:27:37.467Z,99441.42
2019-01-31T07:30:16.312Z,99420.91
2019-01-31T07:32:49.596Z,99419.24
2019-01-31T07:35:23.117Z,99415.06
2019-01-31T07:37:56.790Z,99422.75
2019-01-31T07:40:42.642Z,99420.41
2019-01-31T07:43:16.195Z,99419.91
2019-01-31T07:45:50.530Z,99415.15
2019-01-31T07:48:23.956Z,99412.49
2019-01-31T07:50:57.214Z,99411.96
2019-01-31T07:53:30.575Z,99409.50
2019-01-31T07:56:04.264Z,99411.50
2019-01-31T07:58:37.258Z,99415.08
2019-01-31T08:01:11.270Z,99407.41
2019-01-31T08:03:45.932Z,99415.66
2019-01-31T08:06:19.278Z,99407.91
2019-01-31T08:08:52.723Z,99404.09
2019-01-31T08:11:26.810Z,99404.34
2019-01-31T08:14:00.248Z,99402.06
2019-01-31T08:16:34.942Z,99403.55
2019-01-31T08:19:10.600Z,99404.93
2019-01-31T08:21:45.436Z,99401.05
2019-01-31T08:24:20.980Z,99394.17
2019-01-31T08:26:57.433Z,99392.36
2019-01-31T08:29:30.757Z,99394.39
2019-01-31T08:32:04.092Z,99391.69
2019-01-31T08:34:38.643Z,99384.81
2019-01-31T08:37:12.388Z,99383.09
2019-01-31T08:39:45.945Z,99387.92
2019-01-31T08:42:19.453Z,99384.33
2019-01-31T08:44:53.160Z,99381.44
2019-01-31T08:47:27.124Z,99376.39
2019-01-31T08:50:00.700Z,99382.77
2019-01-31T08:52:34.716Z,99385.59
2019-01-31T08:55:09.241Z,99383.09
2019-01-31T08:57:42.697Z,99387.31
2019-01-31T09:00:27.793Z,99377.67
2019-01-31T09:03:01.743Z,99381.28
2019-01-31T09:08:35.802Z,99380.09
2019-01-31T09:11:10.246Z,99379.77
2019-01-31T09:13:44.877Z,99384.73
2019-01-31T09:16:18.681Z,99384.84
2019-01-31T09:18:53.673Z,99390.38
2019-01-31T09:21:34.222Z,99388.52
2019-01-31T09:24:12.219Z,99393.33
2019-01-31T09:27:07.897Z,99395.23
2019-01-31T09:29:57.598Z,99394.36
2019-01-31T09:32:55.820Z,99384.14
2019-01-31T09:35:46.884Z,99388.84
2019-01-31T09:38:35.980Z,99385.78
2019-01-31T09:41:45.517Z,99385.56
2019-01-31T09:44:33.283Z,99388.84
2019-01-31T09:47:40.050Z,99389.77
2019-01-31T09:50:18.913Z,99384.86
2019-01-31T09:53:15.471Z,99391.01
2019-01-31T09:56:05.584Z,99394.00
2019-01-31T09:59:07.014Z,99392.21
2019-01-31T10:02:09.628Z,99393.45
2019-01-31T10:04:56.932Z,99389.98
2019-01-31T10:07:52.832Z,99389.98
2019-01-31T10:10:34.528Z,99393.81
2019-01-31T10:13:54.752Z,99391.84
2019-01-31T10:16:46.919Z,99394.17
2019-01-31T10:19:45.097Z,99394.56
2019-01-31T10:22:35.900Z,99393.87
2019-01-31T10:25:27.318Z,99400.02
2019-01-31T10:28:18.911Z,99396.83
2019-01-31T10:31:00.488Z,99398.13
2019-01-31T10:33:47.910Z,99398.13
2019-01-31T10:36:44.226Z,99388.86
2019-01-31T10:39:31.689Z,99395.36
2019-01-31T10:42:11.104Z,99396.25
2019-01-31T10:45:01.749Z,99392.77
2019-01-31T10:47:58.930Z,99393.23
2019-01-31T10:50:52.840Z,99393.70
2019-01-31T10:53:37.601Z,99396.80
2019-01-31T10:56:49.456Z,99395.03
2019-01-31T10:59:47.943Z,99389.88
2019-01-31T11:02:44.608Z,99388.58
2019-01-31T11:05:26.519Z,99389.98
2019-01-31T11:08:14.536Z,99385.28
2019-01-31T11:11:14.817Z,99375.85
2019-01-31T11:14:13.430Z,99374.38
2019-01-31T11:17:12.030Z,99374.39
2019-01-31T11:19:58.875Z,99372.66
2019-01-31T11:22:46.943Z,99362.20
2019-01-31T11:25:31.586Z,99353.84
2019-01-31T11:28:26.501Z,99361.34
2019-01-31T11:31:34.415Z,99359.24
2019-01-31T11:34:11.015Z,99343.11
2019-01-31T11:36:54.289Z,99343.11
2019-01-31T11:39:48.790Z,99353.94
2019-01-31T11:42:27.540Z,99354.28
2019-01-31T11:45:22.878Z,99347.14
2019-01-31T11:47:59.659Z,99345.83
2019-01-31T11:50:46.697Z,99339.19
2019-01-31T11:53:37.916Z,99333.34
2019-01-31T11:56:35.970Z,99326.53
2019-01-31T11:59:11.211Z,99322.06
2019-01-31T12:01:46.373Z,99317.78
2019-01-31T12:04:20.862Z,99319.75
2019-01-31T12:06:55.316Z,99315.23
2019-01-31T12:09:29.830Z,99312.89
2019-01-31T12:12:15.045Z,99312.75
2019-01-31T12:14:50.766Z,99309.41
2019-01-31T12:17:26.937Z,99306.61
2019-01-31T12:20:05.716Z,99305.06
2019-01-31T12:23:01.417Z,99302.98
2019-01-31T12:25:38.930Z,99303.66
2019-01-31T12:28:14.143Z,99302.81
2019-01-31T12:30:50.559Z,99306.97
2019-01-31T12:33:26.433Z,99301.14
2019-01-31T12:36:04.722Z,99306.42
2019-01-31T12:38:40.793Z,99307.42
2019-01-31T12:41:16.233Z,99302.98
2019-01-31T12:43:52.460Z,99298.45
2019-01-31T12:46:32.596Z,99294.78
2019-01-31T12:49:08.301Z,99292.81
2019-01-31T12:51:43.528Z,99283.73
2019-01-31T12:57:14.916Z,99295.63
2019-01-31T12:59:50.652Z,99295.14
2019-01-31T13:02:28.518Z,99298.73
2019-01-31T13:05:06.011Z,99286.95
2019-01-31T13:07:44.014Z,99283.57
2019-01-31T13:10:19.555Z,99285.86
2019-01-31T13:12:55.432Z,99278.98
2019-01-31T13:15:36.055Z,99285.93
2019-01-31T13:18:20.711Z,99284.63
2019-01-31T13:20:57.962Z,99284.96
2019-01-31T13:23:32.841Z,99285.66
2019-01-31T13:26:09.911Z,99283.33
2019-01-31T13:28:46.270Z,99275.33
2019-01-31T13:31:21.237Z,99265.38
2019-01-31T13:33:56.275Z,99264.33
2019-01-31T13:36:32.705Z,99270.47
2019-01-31T13:39:10.411Z,99268.11
2019-01-31T13:41:48.304Z,99268.69
2019-01-31T13:44:25.450Z,99274.12
2019-01-31T13:47:01.979Z,99260.43
2019-01-31T13:49:41.688Z,99264.80
2019-01-31T13:52:21.158Z,99264.52
2019-01-31T13:55:18.800Z,99250.06
2019-01-31T13:58:11.578Z,99250.25
2019-01-31T14:00:47.974Z,99255.37
2019-01-31T14:03:24.689Z,99244.09
2019-01-31T14:06:00.013Z,99246.30
2019-01-31T14:08:38.225Z,99246.77
2019-01-31T14:11:13.473Z,99244.28
2019-01-31T14:13:49.773Z,99237.83
2019-01-31T14:16:24.707Z,99238.78
2019-01-31T14:19:01.386Z,99238.14
2019-01-31T14:21:40.110Z,99230.87
2019-01-31T14:24:19.234Z,99228.85
2019-01-31T14:26:55.771Z,99222.36
2019-01-31T14:29:30.660Z,99222.05
2019-01-31T14:32:05.583Z,99217.91
2019-01-31T14:34:40.912Z,99214.59
2019-01-31T14:37:18.621Z,99215.30
2019-01-31T14:39:52.796Z,99207.84
2019-01-31T14:42:27.806Z,99208.63
2019-01-31T14:45:03.607Z,99201.37
2019-01-31T14:47:38.464Z,99203.04
2019-01-31T14:50:23.108Z,99194.91
2019-01-31T14:52:59.647Z,99202.38
2019-01-31T14:55:36.728Z,99195.09
2019-01-31T14:58:15.494Z,99190.47
2019-01-31T15:00:52.356Z,99187.47
2019-01-31T15:03:29.776Z,99181.70
2019-01-31T15:06:08.783Z,99186.66
2019-01-31T15:08:45.228Z,99194.77
2019-01-31T15:11:20.510Z,99186.66
2019-01-31T15:13:57.916Z,99177.24
2019-01-31T15:16:33.442Z,99175.60
2019-01-31T15:19:09.257Z,99170.45
2019-01-31T15:21:44.342Z,99170.95
2019-01-31T15:24:20.059Z,99171.31
2019-01-31T15:26:58.343Z,99164.01
2019-01-31T15:29:32.229Z,99167.48
2019-01-31T15:32:11.390Z,99159.87
2019-01-31T15:34:47.275Z,99153.92
2019-01-31T15:37:22.899Z,99150.44
2019-01-31T15:40:07.804Z,99146.48
2019-01-31T15:42:48.997Z,99146.81
2019-01-31T15:45:28.138Z,99146.80
2019-01-31T15:48:05.097Z,99144.32
2019-01-31T15:50:44.531Z,99141.34
2019-01-31T15:53:22.712Z,99142.16
2019-01-31T15:56:02.714Z,99134.72
2019-01-31T15:58:41.618Z,99128.77
2019-01-31T16:01:24.344Z,99122.47
2019-01-31T16:04:00.855Z,99124.60
2019-01-31T16:06:36.531Z,99112.02
2019-01-31T16:09:12.594Z,99110.33
2019-01-31T16:11:50.106Z,99105.86
2019-01-31T16:14:24.974Z,99098.77
2019-01-31T16:17:00.486Z,99093.80
2019-01-31T16:19:42.177Z,99092.31
2019-01-31T16:22:22.848Z,99087.97
2019-01-31T16:24:57.571Z,99090.95
2019-01-31T16:27:34.637Z,99090.75
2019-01-31T16:30:23.071Z,99091.14
2019-01-31T16:32:59.336Z,99083.02
2019-01-31T16:35:34.201Z,99087.42
2019-01-31T16:38:10.455Z,99070.23
2019-01-31T16:40:46.387Z,99060.13
2019-01-31T16:43:23.159Z,99067.28
2019-01-31T16:46:01.017Z,99058.89
2019-01-31T16:48:35.460Z,99050.80
2019-01-31T16:51:12.708Z,99047.19
2019-01-31T16:53:49.996Z,99045.22
2019-01-31T16:56:30.256Z,99035.59
2019-01-31T16:59:05.484Z,99032.09
2019-01-31T17:01:40.696Z,99023.34
2019-01-31T17:04:19.252Z,99023.70
2019-01-31T17:06:55.494Z,99022.05
2019-01-31T17:09:34.137Z,99017.94
2019-01-31T17:12:10.411Z,99013.63
2019-01-31T17:14:45.232Z,99013.81
2019-01-31T17:17:21.068Z,99011.98
2019-01-31T17:19:55.632Z,99008.69
2019-01-31T17:22:35.667Z,99013.97
2019-01-31T17:25:12.655Z,99011.98
2019-01-31T17:27:47.215Z,99008.35
2019-01-31T17:30:24.319Z,99002.88
2019-01-31T17:33:00.224Z,99006.35
2019-01-31T17:35:32.805Z,99000.74
2019-01-31T17:38:08.609Z,99002.39
2019-01-31T17:40:44.358Z,98995.13
2019-01-31T17:43:18.482Z,98993.97
2019-01-31T17:45:57.298Z,99002.03
2019-01-31T17:48:31.478Z,99002.37
2019-01-31T17:51:05.923Z,98986.80
2019-01-31T17:53:40.096Z,98987.94
2019-01-31T17:56:13.590Z,98990.77
2019-01-31T17:58:47.397Z,98988.89
2019-01-31T18:01:21.809Z,98981.77
2019-01-31T18:03:55.649Z,98983.61
2019-01-31T18:06:29.936Z,98974.19
2019-01-31T18:09:03.567Z,98969.51
2019-01-31T18:11:38.109Z,98971.96
2019-01-31T18:14:11.988Z,98967.70
2019-01-31T18:16:46.112Z,98970.98
2019-01-31T18:19:20.066Z,98966.38
2019-01-31T18:21:53.576Z,98966.08
2019-01-31T18:24:27.311Z,98962.91
2019-01-31T18:27:00.653Z,98961.09
2019-01-31T18:29:34.479Z,98965.88
2019-01-31T18:32:08.236Z,98957.97
2019-01-31T18:34:42.485Z,98945.31
2019-01-31T18:37:16.114Z,98944.67
2019-01-31T18:39:49.942Z,98940.08
2019-01-31T18:42:23.179Z,98934.25
2019-01-31T18:44:56.803Z,98937.25
2019-01-31T18:47:32.732Z,98932.02
2019-01-31T18:50:06.767Z,98937.62
2019-01-31T18:52:40.241Z,98923.06
2019-01-31T18:55:15.399Z,98917.96
2019-01-31T18:57:51.263Z,98919.63
2019-01-31T19:00:31.109Z,98917.14
2019-01-31T19:03:04.858Z,98918.63
2019-01-31T19:05:38.927Z,98915.77
2019-01-31T19:08:12.636Z,98904.37
2019-01-31T19:10:46.078Z,98903.19
2019-01-31T19:13:19.821Z,98892.91
2019-01-31T19:16:04.334Z,98896.06
2019-01-31T19:18:27.991Z,98891.44
2019-01-31T19:21:01.337Z,98886.95
2019-01-31T19:23:35.399Z,98870.90
2019-01-31T19:26:10.567Z,98870.73
2019-01-31T19:28:44.181Z,98862.63
2019-01-31T19:31:17.398Z,98861.12
2019-01-31T19:33:51.769Z,98848.64
2019-01-31T19:36:25.507Z,98848.64
2019-01-31T19:39:00.984Z,98856.00
2019-01-31T19:41:34.438Z,98851.17
2019-01-31T19:44:08.581Z,98843.37
2019-01-31T19:46:41.886Z,98843.14
2019-01-31T19:49:14.798Z,98843.30
2019-01-31T19:51:48.300Z,98844.87
2019-01-31T19:57:50.225Z,98841.13
2019-01-31T20:00:28.954Z,98847.80
2019-01-31T20:03:02.054Z,98839.48
2019-01-31T20:05:35.403Z,98843.61
2019-01-31T20:08:09.189Z,98838.97
2019-01-31T20:10:42.599Z,98838.09
2019-01-31T20:13:15.780Z,98845.88
2019-01-31T20:15:49.281Z,98836.45
2019-01-31T20:18:22.598Z,98839.31
2019-01-31T20:20:55.925Z,98838.61
2019-01-31T20:23:29.379Z,98839.98
2019-01-31T20:26:02.768Z,98832.80
2019-01-31T20:28:36.900Z,98830.09
2019-01-31T20:31:10.070Z,98833.20
2019-01-31T20:33:43.270Z,98837.05
2019-01-31T20:36:18.227Z,98835.98
2019-01-31T20:38:51.591Z,98846.92
2019-01-31T20:41:27.380Z,98840.08
2019-01-31T20:43:59.894Z,98838.22
2019-01-31T20:46:39.701Z,98833.73
2019-01-31T20:49:08.433Z,98836.66
2019-01-31T20:51:41.645Z,98844.02
2019-01-31T20:54:14.364Z,98829.03
2019-01-31T20:56:47.619Z,98838.00
2019-01-31T20:59:20.830Z,98830.88
2019-01-31T21:01:54.177Z,98834.02
2019-01-31T21:04:27.656Z,98835.68
2019-01-31T21:07:01.050Z,98833.53
2019-01-31T21:09:35.729Z,98820.21
2019-01-31T21:12:09.101Z,98826.29
2019-01-31T21:14:42.960Z,98822.80
2019-01-31T21:17:16.402Z,98815.78
2019-01-31T21:19:49.640Z,98817.82
2019-01-31T21:22:23.021Z,98800.78
2019-01-31T21:24:56.553Z,98811.04
2019-01-31T21:27:31.076Z,98808.73
2019-01-31T21:30:05.702Z,98803.35
2019-01-31T21:32:39.102Z,98795.52
2019-01-31T21:35:13.439Z,98794.73
2019-01-31T21:37:47.600Z,98795.52
2019-01-31T21:40:25.607Z,98795.45
2019-01-31T21:42:58.834Z,98790.44
2019-01-31T21:45:32.059Z,98784.77
2019-01-31T21:48:06.229Z,98773.45
2019-01-31T21:50:39.787Z,98778.45
2019-01-31T21:53:13.436Z,98780.57
2019-01-31T21:55:47.093Z,98782.37
2019-01-31T21:58:20.420Z,98785.98
2019-01-31T22:00:53.872Z,98790.11
2019-01-31T22:03:27.469Z,98781.72
2019-01-31T22:06:01.777Z,98776.81
2019-01-31T22:08:34.959Z,98778.84
2019-01-31T22:11:08.349Z,98782.70
2019-01-31T22:16:36.962Z,98786.79
2019-01-31T22:19:10.448Z,98784.20
2019-01-31T22:21:44.449Z,98786.70
2019-01-31T22:24:37.336Z,98785.53
2019-01-31T22:27:12.514Z,98786.79
2019-01-31T22:29:45.895Z,98782.42
2019-01-31T22:32:19.668Z,98788.89
2019-01-31T22:34:52.741Z,98771.30
2019-01-31T22:37:26.552Z,98771.30
2019-01-31T22:39:59.907Z,98776.91
2019-01-31T22:42:33.449Z,98778.64
2019-01-31T22:45:10.073Z,98776.75
2019-01-31T22:47:43.370Z,98783.59
2019-01-31T22:50:24.834Z,98785.39
2019-01-31T22:52:58.187Z,98783.34
2019-01-31T22:55:32.680Z,98789.56
2019-01-31T22:58:06.240Z,98787.55
2019-01-31T23:00:44.994Z,98789.55
2019-01-31T23:03:18.228Z,98785.02
2019-01-31T23:05:54.868Z,98788.56
2019-01-31T23:08:29.570Z,98794.78
2019-01-31T23:11:03.136Z,98793.08
2019-01-31T23:13:36.379Z,98793.41
2019-01-31T23:16:09.871Z,98798.11
2019-01-31T23:18:43.356Z,98802.26
2019-01-31T23:21:17.032Z,98804.91
2019-01-31T23:23:50.487Z,98815.78
2019-01-31T23:26:24.049Z,98807.52
2019-01-31T23:28:57.670Z,98804.91
2019-01-31T23:31:31.467Z,98801.11
2019-01-31T23:34:05.762Z,98795.88
2019-01-31T23:36:39.195Z,98795.88
2019-01-31T23:39:12.917Z,98800.86
2019-01-31T23:41:47.068Z,98810.92
2019-01-31T23:44:20.376Z,98813.44
2019-01-31T23:47:12.989Z,98810.74
2019-01-31T23:49:48.260Z,98812.72
2019-01-31T23:52:21.863Z,98815.67
2019-01-31T23:54:56.395Z,98821.80
2019-01-31T23:57:30.297Z,98823.83
